sensor_id;sensor_type;location;lat;lon;timestamp;temperature;humidity
27900;DHT22;15243;50.726;7.080;2023-04-01T00:01:29;11.20;99.90
27900;DHT22;15243;50.726;7.080;2023-04-01T00:03:56;11.30;99.90
27900;DHT22;15243;50.726;7.080;2023-04-01T00:06:23;11.20;99.90
27900;DHT22;15243;50.726;7.080;2023-04-01T00:08:50;11.20;99.90
27900;DHT22;15243;50.726;7.080;2023-04-01T00:11:17;11.20;99.90
27900;DHT22;15243;50.726;7.080;2023-04-01T00:13:46;11.20;99.90
27900;DHT22;15243;50.726;7.080;2023-04-01T00:16:14;11.20;99.90
27900;DHT22;15243;50.726;7.080;2023-04-01T00:18:45;11.10;99.90
27900;DHT22;15243;50.726;7.080;2023-04-01T00:21:14;11.10;99.90
27900;DHT22;15243;50.726;7.080;2023-04-01T00:23:41;11.10;99.90
27900;DHT22;15243;50.726;7.080;2023-04-01T00:26:09;11.10;99.90
27900;DHT22;15243;50.726;7.080;2023-04-01T00:28:36;11.10;99.90
27900;DHT22;15243;50.726;7.080;2023-04-01T00:31:05;11.10;99.90
27900;DHT22;15243;50.726;7.080;2023-04-01T00:33:33;11.10;99.90
27900;DHT22;15243;50.726;7.080;2023-04-01T00:36:18;11.10;99.90
27900;DHT22;15243;50.726;7.080;2023-04-01T00:38:45;11.10;99.90
27900;DHT22;15243;50.726;7.080;2023-04-01T00:41:14;11.10;99.90
27900;DHT22;15243;50.726;7.080;2023-04-01T00:43:44;11.10;99.90
27900;DHT22;15243;50.726;7.080;2023-04-01T00:46:12;11.10;99.90
27900;DHT22;15243;50.726;7.080;2023-04-01T00:48:50;11.10;99.90
27900;DHT22;15243;50.726;7.080;2023-04-01T00:51:20;11.10;99.90
27900;DHT22;15243;50.726;7.080;2023-04-01T00:53:50;11.10;99.90
27900;DHT22;15243;50.726;7.080;2023-04-01T00:56:21;11.00;99.90
27900;DHT22;15243;50.726;7.080;2023-04-01T00:58:54;11.10;99.90
27900;DHT22;15243;50.726;7.080;2023-04-01T01:01:24;11.10;99.90
27900;DHT22;15243;50.726;7.080;2023-04-01T01:03:52;11.10;99.90
27900;DHT22;15243;50.726;7.080;2023-04-01T01:11:51;11.00;99.90
27900;DHT22;15243;50.726;7.080;2023-04-01T01:20:10;11.00;99.90
27900;DHT22;15243;50.726;7.080;2023-04-01T01:31:51;11.00;99.90
27900;DHT22;15243;50.726;7.080;2023-04-01T01:37:10;11.00;99.90
27900;DHT22;15243;50.726;7.080;2023-04-01T01:39:39;11.00;99.90
27900;DHT22;15243;50.726;7.080;2023-04-01T01:42:10;10.90;99.90
27900;DHT22;15243;50.726;7.080;2023-04-01T01:44:39;10.90;99.90
27900;DHT22;15243;50.726;7.080;2023-04-01T01:47:08;10.90;99.90
27900;DHT22;15243;50.726;7.080;2023-04-01T01:49:36;10.90;99.90
27900;DHT22;15243;50.726;7.080;2023-04-01T01:52:03;10.90;99.90
27900;DHT22;15243;50.726;7.080;2023-04-01T01:54:30;10.80;99.90
27900;DHT22;15243;50.726;7.080;2023-04-01T01:57:08;10.80;99.90
27900;DHT22;15243;50.726;7.080;2023-04-01T01:59:38;10.80;99.90
27900;DHT22;15243;50.726;7.080;2023-04-01T02:02:08;10.90;99.90
27900;DHT22;15243;50.726;7.080;2023-04-01T02:04:39;10.90;99.90
27900;DHT22;15243;50.726;7.080;2023-04-01T02:07:11;10.90;99.90
27900;DHT22;15243;50.726;7.080;2023-04-01T02:09:40;10.90;99.90
27900;DHT22;15243;50.726;7.080;2023-04-01T02:12:09;10.90;99.90
27900;DHT22;15243;50.726;7.080;2023-04-01T02:17:29;10.90;99.90
27900;DHT22;15243;50.726;7.080;2023-04-01T02:20:18;10.90;99.90
27900;DHT22;15243;50.726;7.080;2023-04-01T02:22:54;11.00;99.90
27900;DHT22;15243;50.726;7.080;2023-04-01T02:25:33;10.90;99.90
27900;DHT22;15243;50.726;7.080;2023-04-01T02:28:06;10.90;99.90
27900;DHT22;15243;50.726;7.080;2023-04-01T02:30:36;10.90;99.90
27900;DHT22;15243;50.726;7.080;2023-04-01T02:33:05;10.80;99.90
27900;DHT22;15243;50.726;7.080;2023-04-01T02:35:35;10.70;99.90
27900;DHT22;15243;50.726;7.080;2023-04-01T02:38:03;10.70;99.90
27900;DHT22;15243;50.726;7.080;2023-04-01T02:40:48;10.70;99.90
27900;DHT22;15243;50.726;7.080;2023-04-01T02:43:17;10.70;99.90
27900;DHT22;15243;50.726;7.080;2023-04-01T02:45:45;10.70;99.90
27900;DHT22;15243;50.726;7.080;2023-04-01T02:48:12;10.70;99.90
27900;DHT22;15243;50.726;7.080;2023-04-01T02:50:40;10.70;99.90
27900;DHT22;15243;50.726;7.080;2023-04-01T02:53:07;10.70;99.90
27900;DHT22;15243;50.726;7.080;2023-04-01T02:55:34;10.60;99.90
27900;DHT22;15243;50.726;7.080;2023-04-01T02:58:01;10.60;99.90
27900;DHT22;15243;50.726;7.080;2023-04-01T03:00:29;10.60;99.90
27900;DHT22;15243;50.726;7.080;2023-04-01T03:02:56;10.50;99.90
27900;DHT22;15243;50.726;7.080;2023-04-01T03:05:23;10.40;99.90
27900;DHT22;15243;50.726;7.080;2023-04-01T03:07:51;10.40;99.90
27900;DHT22;15243;50.726;7.080;2023-04-01T03:10:18;10.40;99.90
27900;DHT22;15243;50.726;7.080;2023-04-01T03:12:45;10.30;99.90
27900;DHT22;15243;50.726;7.080;2023-04-01T03:15:13;10.30;99.90
27900;DHT22;15243;50.726;7.080;2023-04-01T03:17:42;10.30;99.90
27900;DHT22;15243;50.726;7.080;2023-04-01T03:20:10;10.20;99.90
27900;DHT22;15243;50.726;7.080;2023-04-01T03:22:38;10.20;99.90
27900;DHT22;15243;50.726;7.080;2023-04-01T03:25:09;10.10;99.90
27900;DHT22;15243;50.726;7.080;2023-04-01T03:27:38;10.10;99.90
27900;DHT22;15243;50.726;7.080;2023-04-01T03:30:06;10.20;99.90
27900;DHT22;15243;50.726;7.080;2023-04-01T03:32:33;10.20;99.90
27900;DHT22;15243;50.726;7.080;2023-04-01T03:35:00;10.30;99.90
27900;DHT22;15243;50.726;7.080;2023-04-01T03:37:27;10.30;99.90
27900;DHT22;15243;50.726;7.080;2023-04-01T03:39:54;10.30;99.90
27900;DHT22;15243;50.726;7.080;2023-04-01T03:42:21;10.30;99.90
27900;DHT22;15243;50.726;7.080;2023-04-01T03:44:48;10.40;99.90
27900;DHT22;15243;50.726;7.080;2023-04-01T03:47:15;10.40;99.90
27900;DHT22;15243;50.726;7.080;2023-04-01T03:49:42;10.40;99.90
27900;DHT22;15243;50.726;7.080;2023-04-01T03:52:10;10.30;99.90
27900;DHT22;15243;50.726;7.080;2023-04-01T03:54:37;10.40;99.90
27900;DHT22;15243;50.726;7.080;2023-04-01T03:57:04;10.50;99.90
27900;DHT22;15243;50.726;7.080;2023-04-01T03:59:32;10.50;99.90
27900;DHT22;15243;50.726;7.080;2023-04-01T04:01:59;10.50;99.90
27900;DHT22;15243;50.726;7.080;2023-04-01T04:04:27;10.50;99.90
27900;DHT22;15243;50.726;7.080;2023-04-01T04:06:54;10.50;99.90
27900;DHT22;15243;50.726;7.080;2023-04-01T04:09:22;10.50;99.90
27900;DHT22;15243;50.726;7.080;2023-04-01T04:11:49;10.50;99.90
27900;DHT22;15243;50.726;7.080;2023-04-01T04:14:16;10.60;99.90
27900;DHT22;15243;50.726;7.080;2023-04-01T04:16:43;10.60;99.90
27900;DHT22;15243;50.726;7.080;2023-04-01T04:19:10;10.60;99.90
27900;DHT22;15243;50.726;7.080;2023-04-01T04:21:38;10.60;99.90
27900;DHT22;15243;50.726;7.080;2023-04-01T04:24:05;10.60;99.90
27900;DHT22;15243;50.726;7.080;2023-04-01T04:26:33;10.50;99.90
27900;DHT22;15243;50.726;7.080;2023-04-01T04:29:00;10.50;99.90
27900;DHT22;15243;50.726;7.080;2023-04-01T04:31:27;10.50;99.90
27900;DHT22;15243;50.726;7.080;2023-04-01T04:33:54;10.50;99.90
27900;DHT22;15243;50.726;7.080;2023-04-01T04:36:21;10.60;99.90
27900;DHT22;15243;50.726;7.080;2023-04-01T04:38:49;10.50;99.90
27900;DHT22;15243;50.726;7.080;2023-04-01T04:41:18;10.60;99.90
27900;DHT22;15243;50.726;7.080;2023-04-01T04:43:53;10.50;99.90
27900;DHT22;15243;50.726;7.080;2023-04-01T04:46:21;10.50;99.90
27900;DHT22;15243;50.726;7.080;2023-04-01T04:48:48;10.50;99.90
27900;DHT22;15243;50.726;7.080;2023-04-01T04:51:17;10.50;99.90
27900;DHT22;15243;50.726;7.080;2023-04-01T04:53:46;10.50;99.90
27900;DHT22;15243;50.726;7.080;2023-04-01T04:56:16;10.50;99.90
27900;DHT22;15243;50.726;7.080;2023-04-01T04:58:43;10.40;99.90
27900;DHT22;15243;50.726;7.080;2023-04-01T05:01:12;10.40;99.90
27900;DHT22;15243;50.726;7.080;2023-04-01T05:03:39;10.30;99.90
27900;DHT22;15243;50.726;7.080;2023-04-01T05:06:08;10.30;99.90
27900;DHT22;15243;50.726;7.080;2023-04-01T05:08:35;10.30;99.90
27900;DHT22;15243;50.726;7.080;2023-04-01T05:11:03;10.20;99.90
27900;DHT22;15243;50.726;7.080;2023-04-01T05:13:29;10.20;99.90
27900;DHT22;15243;50.726;7.080;2023-04-01T05:15:56;10.20;99.90
27900;DHT22;15243;50.726;7.080;2023-04-01T05:18:23;10.10;99.90
27900;DHT22;15243;50.726;7.080;2023-04-01T05:20:53;10.10;99.90
27900;DHT22;15243;50.726;7.080;2023-04-01T05:23:22;10.10;99.90
27900;DHT22;15243;50.726;7.080;2023-04-01T05:25:49;10.10;99.90
27900;DHT22;15243;50.726;7.080;2023-04-01T05:28:18;10.10;99.90
27900;DHT22;15243;50.726;7.080;2023-04-01T05:30:45;10.00;99.90
27900;DHT22;15243;50.726;7.080;2023-04-01T05:33:13;10.10;99.90
27900;DHT22;15243;50.726;7.080;2023-04-01T05:35:40;10.20;99.90
27900;DHT22;15243;50.726;7.080;2023-04-01T05:38:08;10.20;99.90
27900;DHT22;15243;50.726;7.080;2023-04-01T05:40:35;10.10;99.90
27900;DHT22;15243;50.726;7.080;2023-04-01T05:43:02;10.10;99.90
27900;DHT22;15243;50.726;7.080;2023-04-01T05:45:28;10.00;99.90
27900;DHT22;15243;50.726;7.080;2023-04-01T05:47:55;9.90;99.90
27900;DHT22;15243;50.726;7.080;2023-04-01T05:50:22;9.90;99.90
27900;DHT22;15243;50.726;7.080;2023-04-01T05:52:49;10.00;99.90
27900;DHT22;15243;50.726;7.080;2023-04-01T05:55:17;10.00;99.90
27900;DHT22;15243;50.726;7.080;2023-04-01T05:57:45;10.10;99.90
27900;DHT22;15243;50.726;7.080;2023-04-01T06:00:13;10.10;99.90
27900;DHT22;15243;50.726;7.080;2023-04-01T06:02:40;10.20;99.90
27900;DHT22;15243;50.726;7.080;2023-04-01T06:05:27;10.20;99.90
27900;DHT22;15243;50.726;7.080;2023-04-01T06:08:21;10.20;99.90
27900;DHT22;15243;50.726;7.080;2023-04-01T06:13:31;10.20;99.90
27900;DHT22;15243;50.726;7.080;2023-04-01T06:16:18;10.30;99.90
27900;DHT22;15243;50.726;7.080;2023-04-01T06:18:53;10.30;99.90
27900;DHT22;15243;50.726;7.080;2023-04-01T06:21:42;10.20;99.90
27900;DHT22;15243;50.726;7.080;2023-04-01T06:29:44;10.10;99.90
27900;DHT22;15243;50.726;7.080;2023-04-01T06:38:01;10.20;99.90
27900;DHT22;15243;50.726;7.080;2023-04-01T06:47:02;10.40;99.90
27900;DHT22;15243;50.726;7.080;2023-04-01T06:57:40;10.50;99.90
27900;DHT22;15243;50.726;7.080;2023-04-01T08:57:45;11.20;99.90
27900;DHT22;15243;50.726;7.080;2023-04-01T09:09:15;11.00;99.90
27900;DHT22;15243;50.726;7.080;2023-04-01T09:12:02;10.90;99.90
27900;DHT22;15243;50.726;7.080;2023-04-01T09:26:58;10.70;99.90
27900;DHT22;15243;50.726;7.080;2023-04-01T09:29:51;10.80;99.90
27900;DHT22;15243;50.726;7.080;2023-04-01T09:35:56;10.70;99.90
27900;DHT22;15243;50.726;7.080;2023-04-01T09:38:37;10.70;99.90
27900;DHT22;15243;50.726;7.080;2023-04-01T09:41:32;10.80;99.90
27900;DHT22;15243;50.726;7.080;2023-04-01T09:50:40;11.20;99.90
27900;DHT22;15243;50.726;7.080;2023-04-01T10:27:21;11.50;99.90
27900;DHT22;15243;50.726;7.080;2023-04-01T10:30:23;11.50;99.90
27900;DHT22;15243;50.726;7.080;2023-04-01T10:33:02;11.70;99.90
27900;DHT22;15243;50.726;7.080;2023-04-01T10:42:11;11.70;99.90
27900;DHT22;15243;50.726;7.080;2023-04-01T10:59:16;11.70;99.90
27900;DHT22;15243;50.726;7.080;2023-04-01T11:01:56;11.90;99.90
27900;DHT22;15243;50.726;7.080;2023-04-01T11:04:57;12.00;99.90
27900;DHT22;15243;50.726;7.080;2023-04-01T11:33:43;11.60;99.90
27900;DHT22;15243;50.726;7.080;2023-04-01T11:39:37;11.60;99.90
27900;DHT22;15243;50.726;7.080;2023-04-01T11:42:20;11.50;99.90
27900;DHT22;15243;50.726;7.080;2023-04-01T11:45:07;11.50;99.90
27900;DHT22;15243;50.726;7.080;2023-04-01T11:48:21;11.50;99.90
27900;DHT22;15243;50.726;7.080;2023-04-01T12:10:19;11.60;99.90
27900;DHT22;15243;50.726;7.080;2023-04-01T12:12:58;11.80;99.90
27900;DHT22;15243;50.726;7.080;2023-04-01T12:21:28;11.90;99.90
27900;DHT22;15243;50.726;7.080;2023-04-01T12:24:43;12.10;99.90
27900;DHT22;15243;50.726;7.080;2023-04-01T12:27:41;12.20;99.90
27900;DHT22;15243;50.726;7.080;2023-04-01T12:30:38;12.00;99.90
27900;DHT22;15243;50.726;7.080;2023-04-01T12:33:31;12.10;99.90
27900;DHT22;15243;50.726;7.080;2023-04-01T12:39:22;12.10;99.90
27900;DHT22;15243;50.726;7.080;2023-04-01T12:59:23;11.60;99.90
27900;DHT22;15243;50.726;7.080;2023-04-01T13:02:00;11.70;99.90
27900;DHT22;15243;50.726;7.080;2023-04-01T13:12:40;11.30;99.90
27900;DHT22;15243;50.726;7.080;2023-04-01T13:15:52;11.30;99.90
27900;DHT22;15243;50.726;7.080;2023-04-01T13:27:25;11.30;99.90
27900;DHT22;15243;50.726;7.080;2023-04-01T13:35:18;11.80;99.90
27900;DHT22;15243;50.726;7.080;2023-04-01T13:43:37;13.00;99.90
27900;DHT22;15243;50.726;7.080;2023-04-01T14:05:53;12.40;99.90
27900;DHT22;15243;50.726;7.080;2023-04-01T14:08:29;12.60;99.90
27900;DHT22;15243;50.726;7.080;2023-04-01T14:14:01;12.90;99.90
27900;DHT22;15243;50.726;7.080;2023-04-01T14:33:35;12.60;99.90
27900;DHT22;15243;50.726;7.080;2023-04-01T14:39:22;13.00;99.90
27900;DHT22;15243;50.726;7.080;2023-04-01T14:42:33;12.90;99.90
27900;DHT22;15243;50.726;7.080;2023-04-01T14:48:14;12.60;99.90
27900;DHT22;15243;50.726;7.080;2023-04-01T14:50:49;12.40;99.90
27900;DHT22;15243;50.726;7.080;2023-04-01T14:53:27;12.40;99.90
27900;DHT22;15243;50.726;7.080;2023-04-01T14:56:00;12.40;99.90
27900;DHT22;15243;50.726;7.080;2023-04-01T14:58:44;12.80;99.90
27900;DHT22;15243;50.726;7.080;2023-04-01T15:04:37;12.50;99.90
27900;DHT22;15243;50.726;7.080;2023-04-01T15:16:25;12.50;99.90
27900;DHT22;15243;50.726;7.080;2023-04-01T15:24:35;12.20;99.90
27900;DHT22;15243;50.726;7.080;2023-04-01T15:58:48;11.50;99.90
27900;DHT22;15243;50.726;7.080;2023-04-01T16:01:56;11.70;99.90
27900;DHT22;15243;50.726;7.080;2023-04-01T16:13:21;11.60;99.90
27900;DHT22;15243;50.726;7.080;2023-04-01T16:18:37;11.50;99.90
27900;DHT22;15243;50.726;7.080;2023-04-01T16:24:33;11.30;99.90
27900;DHT22;15243;50.726;7.080;2023-04-01T16:29:57;11.40;99.90
27900;DHT22;15243;50.726;7.080;2023-04-01T16:32:49;11.30;99.90
27900;DHT22;15243;50.726;7.080;2023-04-01T16:38:26;11.40;99.90
27900;DHT22;15243;50.726;7.080;2023-04-01T16:41:35;11.30;99.90
27900;DHT22;15243;50.726;7.080;2023-04-01T16:44:49;11.20;99.90
27900;DHT22;15243;50.726;7.080;2023-04-01T16:47:22;11.30;99.90
27900;DHT22;15243;50.726;7.080;2023-04-01T16:50:05;11.30;99.90
27900;DHT22;15243;50.726;7.080;2023-04-01T16:55:19;11.20;99.90
27900;DHT22;15243;50.726;7.080;2023-04-01T16:57:50;11.20;99.90
27900;DHT22;15243;50.726;7.080;2023-04-01T17:00:28;11.10;99.90
27900;DHT22;15243;50.726;7.080;2023-04-01T17:17:29;10.90;99.90
27900;DHT22;15243;50.726;7.080;2023-04-01T17:30:53;10.70;99.90
27900;DHT22;15243;50.726;7.080;2023-04-01T17:33:45;10.60;99.90
27900;DHT22;15243;50.726;7.080;2023-04-01T17:42:10;10.60;99.90
27900;DHT22;15243;50.726;7.080;2023-04-01T17:45:21;10.60;99.90
27900;DHT22;15243;50.726;7.080;2023-04-01T18:13:21;10.40;99.90
27900;DHT22;15243;50.726;7.080;2023-04-01T18:16:09;10.40;99.90
27900;DHT22;15243;50.726;7.080;2023-04-01T18:21:52;10.40;99.90
27900;DHT22;15243;50.726;7.080;2023-04-01T18:24:22;10.40;99.90
27900;DHT22;15243;50.726;7.080;2023-04-01T18:32:24;10.20;99.90
27900;DHT22;15243;50.726;7.080;2023-04-01T18:35:12;10.30;99.90
27900;DHT22;15243;50.726;7.080;2023-04-01T18:38:11;10.30;99.90
27900;DHT22;15243;50.726;7.080;2023-04-01T18:46:49;10.10;99.90
27900;DHT22;15243;50.726;7.080;2023-04-01T18:49:33;10.10;99.90
27900;DHT22;15243;50.726;7.080;2023-04-01T18:52:22;10.10;99.90
27900;DHT22;15243;50.726;7.080;2023-04-01T18:57:58;10.20;99.90
27900;DHT22;15243;50.726;7.080;2023-04-01T19:00:36;10.10;99.90
27900;DHT22;15243;50.726;7.080;2023-04-01T19:03:31;10.10;99.90
27900;DHT22;15243;50.726;7.080;2023-04-01T19:06:07;10.10;99.90
27900;DHT22;15243;50.726;7.080;2023-04-01T19:08:42;10.10;99.90
27900;DHT22;15243;50.726;7.080;2023-04-01T19:19:21;10.10;99.90
27900;DHT22;15243;50.726;7.080;2023-04-01T19:22:02;10.10;99.90
27900;DHT22;15243;50.726;7.080;2023-04-01T19:32:37;10.00;99.90
27900;DHT22;15243;50.726;7.080;2023-04-01T19:38:10;9.90;99.90
27900;DHT22;15243;50.726;7.080;2023-04-01T19:46:23;9.90;99.90
27900;DHT22;15243;50.726;7.080;2023-04-01T19:51:37;10.00;99.90
27900;DHT22;15243;50.726;7.080;2023-04-01T20:11:25;9.70;99.90
27900;DHT22;15243;50.726;7.080;2023-04-01T20:14:10;9.70;99.90
27900;DHT22;15243;50.726;7.080;2023-04-01T20:19:36;9.70;99.90
27900;DHT22;15243;50.726;7.080;2023-04-01T20:25:05;9.70;99.90
27900;DHT22;15243;50.726;7.080;2023-04-01T20:27:40;9.80;99.90
27900;DHT22;15243;50.726;7.080;2023-04-01T20:30:32;9.80;99.90
27900;DHT22;15243;50.726;7.080;2023-04-01T20:33:17;9.80;99.90
27900;DHT22;15243;50.726;7.080;2023-04-01T20:47:20;9.60;99.90
27900;DHT22;15243;50.726;7.080;2023-04-01T21:15:47;9.50;99.90
27900;DHT22;15243;50.726;7.080;2023-04-01T21:30:42;9.50;99.90
27900;DHT22;15243;50.726;7.080;2023-04-01T21:36:10;9.30;99.90
27900;DHT22;15243;50.726;7.080;2023-04-01T21:44:48;9.30;99.90
27900;DHT22;15243;50.726;7.080;2023-04-01T21:58:38;9.20;99.90
27900;DHT22;15243;50.726;7.080;2023-04-01T22:09:18;9.10;99.90
27900;DHT22;15243;50.726;7.080;2023-04-01T22:23:01;9.20;99.90
27900;DHT22;15243;50.726;7.080;2023-04-01T22:25:38;9.20;99.90
27900;DHT22;15243;50.726;7.080;2023-04-01T22:28:11;9.30;99.90
27900;DHT22;15243;50.726;7.080;2023-04-01T22:30:42;9.30;99.90
27900;DHT22;15243;50.726;7.080;2023-04-01T22:40:33;9.20;99.90
27900;DHT22;15243;50.726;7.080;2023-04-01T22:42:43;9.10;99.90
27900;DHT22;15243;50.726;7.080;2023-04-01T22:45:43;9.10;99.90
27900;DHT22;15243;50.726;7.080;2023-04-01T22:48:20;9.10;99.90
27900;DHT22;15243;50.726;7.080;2023-04-01T22:51:07;9.20;99.90
27900;DHT22;15243;50.726;7.080;2023-04-01T22:59:45;9.00;99.90
27900;DHT22;15243;50.726;7.080;2023-04-01T23:02:20;9.00;99.90
27900;DHT22;15243;50.726;7.080;2023-04-01T23:04:54;9.00;99.90
27900;DHT22;15243;50.726;7.080;2023-04-01T23:09:58;9.10;99.90
27900;DHT22;15243;50.726;7.080;2023-04-01T23:12:28;9.10;99.90
27900;DHT22;15243;50.726;7.080;2023-04-01T23:14:58;9.10;99.90
27900;DHT22;15243;50.726;7.080;2023-04-01T23:20:28;9.00;99.90
27900;DHT22;15243;50.726;7.080;2023-04-01T23:28:51;9.10;99.90
27900;DHT22;15243;50.726;7.080;2023-04-01T23:31:39;9.00;99.90
27900;DHT22;15243;50.726;7.080;2023-04-01T23:34:20;9.00;99.90
27900;DHT22;15243;50.726;7.080;2023-04-01T23:36:54;8.90;99.90
27900;DHT22;15243;50.726;7.080;2023-04-01T23:44:53;8.90;99.90
27900;DHT22;15243;50.726;7.080;2023-04-01T23:47:24;8.90;99.90
27900;DHT22;15243;50.726;7.080;2023-04-01T23:50:16;8.90;99.90
27900;DHT22;15243;50.726;7.080;2023-04-01T23:52:48;8.90;99.90
27900;DHT22;15243;50.726;7.080;2023-04-01T23:55:27;8.90;99.90
